createdAt,value
2022-08-22T00:00:53.180Z,18.72
2022-08-22T00:01:53.209Z,18.67
2022-08-22T00:02:42.499Z,22.19
2022-08-22T00:02:58.023Z,19.05
2022-08-22T00:03:00.779Z,19.97
2022-08-22T00:03:02.490Z,22.17
2022-08-22T00:03:03.229Z,23.01
2022-08-22T00:03:08.536Z,19.54
2022-08-22T00:03:08.735Z,19.28
2022-08-22T00:03:17.708Z,18.67
2022-08-22T00:03:54.086Z,18.65
2022-08-22T00:04:52.810Z,18.64
2022-08-22T00:05:52.800Z,18.59
2022-08-22T00:06:52.779Z,18.57
2022-08-22T00:07:52.907Z,18.55
2022-08-22T00:08:52.795Z,18.52
2022-08-22T00:09:52.751Z,18.49
2022-08-22T00:10:52.754Z,18.49
2022-08-22T00:11:52.745Z,18.47
2022-08-22T00:12:52.729Z,18.46
2022-08-22T00:13:56.673Z,18.43
2022-08-22T00:14:53.927Z,18.44
2022-08-22T00:15:52.682Z,18.44
2022-08-22T00:16:53.409Z,18.46
2022-08-22T00:17:52.718Z,18.46
2022-08-22T00:18:52.664Z,18.46
2022-08-22T00:19:52.649Z,18.46
2022-08-22T00:20:52.927Z,18.47
2022-08-22T00:21:52.619Z,18.47
2022-08-22T00:22:52.598Z,18.46
2022-08-22T00:23:52.886Z,18.47
2022-08-22T00:24:52.575Z,18.49
2022-08-22T00:25:52.579Z,18.49
2022-08-22T00:26:52.558Z,18.52
2022-08-22T00:27:52.561Z,18.50
2022-08-22T00:28:52.540Z,18.49
2022-08-22T00:29:52.741Z,18.49
2022-08-22T00:30:52.678Z,18.46
2022-08-22T00:31:52.780Z,18.46
2022-08-22T00:32:52.478Z,18.42
2022-08-22T00:33:52.495Z,18.39
2022-08-22T00:34:52.680Z,18.34
2022-08-22T00:35:52.463Z,18.34
2022-08-22T00:36:52.451Z,18.36
2022-08-22T00:37:52.486Z,18.36
2022-08-22T00:38:52.410Z,18.36
2022-08-22T00:39:52.741Z,18.33
2022-08-22T00:40:52.391Z,18.31
2022-08-22T00:41:52.373Z,18.28
2022-08-22T00:42:52.383Z,18.27
2022-08-22T00:43:52.360Z,18.27
2022-08-22T00:44:52.666Z,18.28
2022-08-22T00:45:52.345Z,18.28
2022-08-22T00:46:52.323Z,18.29
2022-08-22T00:47:52.346Z,18.31
2022-08-22T00:48:52.297Z,18.33
2022-08-22T00:49:52.588Z,18.33
2022-08-22T00:50:52.265Z,18.29
2022-08-22T00:51:52.567Z,18.29
2022-08-22T00:52:52.258Z,18.25
2022-08-22T00:53:52.239Z,18.22
2022-08-22T00:54:52.557Z,18.22
2022-08-22T00:55:52.219Z,18.21
2022-08-22T00:56:52.220Z,18.21
2022-08-22T00:57:52.222Z,18.21
2022-08-22T00:58:52.487Z,18.21
2022-08-22T00:59:52.170Z,18.19
2022-08-22T01:00:52.211Z,18.19
2022-08-22T01:01:52.137Z,18.21
2022-08-22T01:02:52.907Z,18.22
2022-08-22T01:03:52.405Z,18.24
2022-08-22T01:04:52.099Z,18.22
2022-08-22T01:05:52.111Z,18.24
2022-08-22T01:06:52.093Z,18.22
2022-08-22T01:07:52.083Z,18.21
2022-08-22T01:08:52.383Z,18.22
2022-08-22T01:09:52.061Z,18.21
2022-08-22T01:10:52.269Z,18.21
2022-08-22T01:11:52.020Z,18.19
2022-08-22T01:12:59.033Z,18.19
2022-08-22T01:13:52.015Z,18.19
2022-08-22T01:14:51.992Z,18.21
2022-08-22T01:15:52.013Z,18.19
2022-08-22T01:16:51.971Z,18.19
2022-08-22T01:17:51.981Z,18.18
2022-08-22T01:18:51.958Z,18.24
2022-08-22T01:19:52.236Z,18.25
2022-08-22T01:20:51.938Z,18.25
2022-08-22T01:21:52.233Z,18.22
2022-08-22T01:22:51.916Z,18.19
2022-08-22T01:23:51.876Z,18.17
2022-08-22T01:24:51.889Z,18.10
2022-08-22T01:25:51.858Z,18.03
2022-08-22T01:26:52.177Z,18.02
2022-08-22T01:27:51.868Z,17.99
2022-08-22T01:28:51.840Z,17.97
2022-08-22T01:29:52.137Z,17.99
2022-08-22T01:30:51.822Z,17.97
2022-08-22T01:31:51.802Z,18.00
2022-08-22T01:32:51.997Z,18.00
2022-08-22T01:33:52.782Z,17.99
2022-08-22T01:34:51.758Z,17.99
2022-08-22T01:35:51.759Z,17.99
2022-08-22T01:36:51.751Z,18.00
2022-08-22T01:37:51.719Z,17.99
2022-08-22T01:38:51.724Z,18.00
2022-08-22T01:39:51.807Z,18.00
2022-08-22T01:40:53.873Z,17.95
2022-08-22T01:41:51.990Z,17.95
2022-08-22T01:42:51.685Z,17.95
2022-08-22T01:43:59.913Z,17.94
2022-08-22T01:44:52.657Z,17.92
2022-08-22T01:45:51.630Z,17.92
2022-08-22T01:46:51.622Z,17.89
2022-08-22T01:47:54.257Z,17.88
2022-08-22T01:48:51.593Z,17.87
2022-08-22T01:49:51.584Z,17.82
2022-08-22T01:50:51.574Z,17.81
2022-08-22T01:51:51.577Z,17.81
2022-08-22T01:52:51.544Z,17.74
2022-08-22T01:53:51.857Z,17.70
2022-08-22T01:54:51.538Z,17.69
2022-08-22T01:55:51.528Z,17.66
2022-08-22T01:56:51.805Z,17.66
2022-08-22T01:57:51.509Z,17.64
2022-08-22T01:58:51.478Z,17.66
2022-08-22T01:59:51.727Z,17.64
2022-08-22T02:00:51.513Z,17.63
2022-08-22T02:01:51.473Z,17.64
2022-08-22T02:02:51.427Z,17.66
2022-08-22T02:03:51.434Z,17.64
2022-08-22T02:04:51.708Z,17.64
2022-08-22T02:05:51.413Z,17.63
2022-08-22T02:06:51.379Z,17.63
2022-08-22T02:07:51.390Z,17.62
2022-08-22T02:08:51.373Z,17.62
2022-08-22T02:09:51.358Z,17.62
2022-08-22T02:10:51.350Z,17.62
2022-08-22T02:11:51.343Z,17.62
2022-08-22T02:12:51.310Z,17.62
2022-08-22T02:13:51.327Z,17.59
2022-08-22T02:14:51.292Z,17.59
2022-08-22T02:15:51.604Z,17.54
2022-08-22T02:16:51.495Z,17.51
2022-08-22T02:17:51.266Z,17.48
2022-08-22T02:18:51.256Z,17.46
2022-08-22T02:19:51.255Z,17.43
2022-08-22T02:20:51.216Z,17.41
2022-08-22T02:21:51.227Z,17.38
2022-08-22T02:22:51.227Z,17.36
2022-08-22T02:23:51.188Z,17.36
2022-08-22T02:24:51.190Z,17.35
2022-08-22T02:25:51.178Z,17.32
2022-08-22T02:26:51.147Z,17.35
2022-08-22T02:27:51.468Z,17.35
2022-08-22T02:28:57.230Z,17.35
2022-08-22T02:29:52.138Z,17.33
2022-08-22T02:30:51.120Z,17.36
2022-08-22T02:31:51.116Z,17.36
2022-08-22T02:32:51.336Z,17.35
2022-08-22T02:33:51.086Z,17.33
2022-08-22T02:34:51.080Z,17.35
2022-08-22T02:35:51.301Z,17.33
2022-08-22T02:36:51.042Z,17.35
2022-08-22T02:37:51.028Z,17.35
2022-08-22T02:38:51.010Z,17.33
2022-08-22T02:39:51.250Z,17.32
2022-08-22T02:40:50.998Z,17.32
2022-08-22T02:41:51.000Z,17.32
2022-08-22T02:42:50.967Z,17.30
2022-08-22T02:43:51.281Z,17.30
2022-08-22T02:44:50.951Z,17.32
2022-08-22T02:45:50.951Z,17.32
2022-08-22T02:46:50.943Z,17.32
2022-08-22T02:47:50.926Z,17.32
2022-08-22T02:48:51.149Z,17.30
2022-08-22T02:49:50.905Z,17.32
2022-08-22T02:50:50.886Z,17.29
2022-08-22T02:51:50.862Z,17.29
2022-08-22T02:52:50.852Z,17.29
2022-08-22T02:53:50.844Z,17.28
2022-08-22T02:54:51.141Z,17.25
2022-08-22T02:55:50.844Z,17.25
2022-08-22T02:56:50.805Z,17.23
2022-08-22T02:57:50.809Z,17.25
2022-08-22T02:58:50.789Z,17.25
2022-08-22T02:59:50.790Z,17.26
2022-08-22T03:00:51.172Z,17.26
2022-08-22T03:01:50.768Z,17.23
2022-08-22T03:02:50.739Z,17.23
2022-08-22T03:03:51.007Z,17.22
2022-08-22T03:04:51.035Z,17.23
2022-08-22T03:05:50.707Z,17.23
2022-08-22T03:06:50.723Z,17.23
2022-08-22T03:07:50.711Z,17.23
2022-08-22T03:08:50.874Z,17.22
2022-08-22T03:09:50.680Z,17.26
2022-08-22T03:10:50.908Z,17.26
2022-08-22T03:11:50.640Z,17.26
2022-08-22T03:12:53.609Z,17.26
2022-08-22T03:13:51.632Z,17.23
2022-08-22T03:14:50.623Z,17.18
2022-08-22T03:15:50.590Z,17.17
2022-08-22T03:16:50.792Z,17.15
2022-08-22T03:17:50.571Z,17.11
2022-08-22T03:18:50.565Z,17.10
2022-08-22T03:19:50.841Z,17.11
2022-08-22T03:20:50.530Z,17.08
2022-08-22T03:21:50.541Z,17.08
2022-08-22T03:22:50.792Z,17.08
2022-08-22T03:23:50.510Z,17.07
2022-08-22T03:24:50.505Z,17.04
2022-08-22T03:25:50.726Z,17.00
2022-08-22T03:26:50.472Z,16.98
2022-08-22T03:27:50.454Z,16.90
2022-08-22T03:28:59.109Z,16.85
2022-08-22T03:29:51.446Z,16.83
2022-08-22T03:30:50.436Z,16.78
2022-08-22T03:31:50.435Z,16.75
2022-08-22T03:32:50.417Z,16.78
2022-08-22T03:33:50.387Z,16.77
2022-08-22T03:34:50.708Z,16.80
2022-08-22T03:35:50.380Z,16.80
2022-08-22T03:36:50.350Z,16.80
2022-08-22T03:37:50.337Z,16.78
2022-08-22T03:38:50.340Z,16.80
2022-08-22T03:39:50.391Z,16.78
2022-08-22T03:40:50.545Z,16.78
2022-08-22T03:41:50.299Z,16.78
2022-08-22T03:42:50.287Z,16.78
2022-08-22T03:43:50.288Z,16.80
2022-08-22T03:44:50.277Z,16.81
2022-08-22T03:45:50.262Z,16.80
2022-08-22T03:46:50.560Z,16.80
2022-08-22T03:47:50.230Z,16.80
2022-08-22T03:48:50.209Z,16.80
2022-08-22T03:49:50.209Z,16.77
2022-08-22T03:50:50.210Z,16.77
2022-08-22T03:51:50.513Z,16.77
2022-08-22T03:52:50.172Z,16.78
2022-08-22T03:53:50.174Z,16.77
2022-08-22T03:54:50.143Z,16.77
2022-08-22T03:55:50.452Z,16.78
2022-08-22T03:56:50.122Z,16.77
2022-08-22T03:57:50.112Z,16.78
2022-08-22T03:58:50.114Z,16.80
2022-08-22T03:59:50.096Z,16.78
2022-08-22T04:00:50.133Z,16.77
2022-08-22T04:01:51.384Z,16.78
2022-08-22T04:02:50.053Z,16.78
2022-08-22T04:03:50.045Z,16.78
2022-08-22T04:04:50.035Z,16.80
2022-08-22T04:05:53.290Z,16.78
2022-08-22T04:06:50.021Z,16.77
2022-08-22T04:07:51.308Z,16.75
2022-08-22T04:08:49.999Z,16.70
2022-08-22T04:09:49.976Z,16.67
2022-08-22T04:10:49.960Z,16.62
2022-08-22T04:11:49.956Z,16.58
2022-08-22T04:12:49.945Z,16.55
2022-08-22T04:13:50.138Z,16.55
2022-08-22T04:14:49.928Z,16.56
2022-08-22T04:15:49.917Z,16.55
2022-08-22T04:16:49.911Z,16.56
2022-08-22T04:17:49.888Z,16.55
2022-08-22T04:18:50.098Z,16.55
2022-08-22T04:19:49.887Z,16.55
2022-08-22T04:20:49.841Z,16.56
2022-08-22T04:21:49.840Z,16.55
2022-08-22T04:22:49.820Z,16.55
2022-08-22T04:23:50.074Z,16.55
2022-08-22T04:24:52.153Z,16.55
2022-08-22T04:25:49.791Z,16.55
2022-08-22T04:26:49.794Z,16.55
2022-08-22T04:27:49.773Z,16.53
2022-08-22T04:28:50.044Z,16.52
2022-08-22T04:29:49.764Z,16.52
2022-08-22T04:30:49.746Z,16.53
2022-08-22T04:31:49.723Z,16.55
2022-08-22T04:32:49.717Z,16.55
2022-08-22T04:33:50.035Z,16.53
2022-08-22T04:34:49.712Z,16.55
2022-08-22T04:35:49.683Z,16.56
2022-08-22T04:36:49.677Z,16.58
2022-08-22T04:37:49.654Z,16.56
2022-08-22T04:38:49.655Z,16.58
2022-08-22T04:39:49.902Z,16.58
2022-08-22T04:40:49.618Z,16.58
2022-08-22T04:41:49.619Z,16.59
2022-08-22T04:42:49.604Z,16.58
2022-08-22T04:43:49.602Z,16.56
2022-08-22T04:44:49.903Z,16.55
2022-08-22T04:45:49.581Z,16.58
2022-08-22T04:46:49.839Z,16.55
2022-08-22T04:47:54.112Z,16.55
2022-08-22T04:48:49.541Z,16.55
2022-08-22T04:49:49.527Z,16.55
2022-08-22T04:50:49.521Z,16.56
2022-08-22T04:51:49.489Z,16.56
2022-08-22T04:52:49.520Z,16.55
2022-08-22T04:53:49.479Z,16.53
2022-08-22T04:54:49.480Z,16.53
2022-08-22T04:55:49.450Z,16.53
2022-08-22T04:56:49.450Z,16.55
2022-08-22T04:57:49.431Z,16.55
2022-08-22T04:58:49.631Z,16.56
2022-08-22T04:59:49.414Z,16.56
2022-08-22T05:00:49.391Z,16.58
2022-08-22T05:01:49.407Z,16.56
2022-08-22T05:02:49.376Z,16.58
2022-08-22T05:03:49.373Z,16.59
2022-08-22T05:04:49.340Z,16.58
2022-08-22T05:05:49.331Z,16.62
2022-08-22T05:06:49.632Z,16.62
2022-08-22T05:07:49.327Z,16.62
2022-08-22T05:08:49.846Z,16.65
2022-08-22T05:09:49.285Z,16.65
2022-08-22T05:10:49.283Z,16.67
2022-08-22T05:11:49.307Z,16.68
2022-08-22T05:12:49.510Z,16.67
2022-08-22T05:13:49.587Z,16.67
2022-08-22T05:14:49.241Z,16.65
2022-08-22T05:15:49.216Z,16.67
2022-08-22T05:16:49.234Z,16.68
2022-08-22T05:17:49.217Z,16.70
2022-08-22T05:18:49.206Z,16.68
2022-08-22T05:19:49.217Z,16.67
2022-08-22T05:20:49.488Z,16.67
2022-08-22T05:21:49.182Z,16.67
2022-08-22T05:22:49.136Z,16.68
2022-08-22T05:23:49.149Z,16.70
2022-08-22T05:24:49.129Z,16.71
2022-08-22T05:25:49.122Z,16.73
2022-08-22T05:26:49.429Z,16.73
2022-08-22T05:27:49.079Z,16.71
2022-08-22T05:28:52.886Z,16.71
2022-08-22T05:29:49.072Z,16.74
2022-08-22T05:30:49.048Z,16.74
2022-08-22T05:31:49.031Z,16.75
2022-08-22T05:32:49.281Z,16.77
2022-08-22T05:33:49.043Z,16.78
2022-08-22T05:34:49.000Z,16.80
2022-08-22T05:35:51.589Z,16.80
2022-08-22T05:36:48.972Z,16.83
2022-08-22T05:37:49.074Z,16.83
2022-08-22T05:38:49.175Z,16.86
2022-08-22T05:39:49.011Z,16.88
2022-08-22T05:40:48.933Z,16.86
2022-08-22T05:41:49.246Z,16.88
2022-08-22T05:42:48.906Z,16.88
2022-08-22T05:43:48.903Z,16.88
2022-08-22T05:44:48.883Z,16.88
2022-08-22T05:45:48.888Z,16.88
2022-08-22T05:46:48.855Z,16.90
2022-08-22T05:47:49.155Z,16.92
2022-08-22T05:48:48.856Z,16.93
2022-08-22T05:49:48.839Z,16.93
2022-08-22T05:50:50.956Z,16.95
2022-08-22T05:51:48.819Z,16.95
2022-08-22T05:52:48.807Z,16.96
2022-08-22T05:53:49.086Z,17.00
2022-08-22T05:54:48.784Z,16.99
2022-08-22T05:55:48.776Z,17.03
2022-08-22T05:56:50.211Z,17.06
2022-08-22T05:57:49.071Z,17.06
2022-08-22T05:58:48.718Z,17.10
2022-08-22T05:59:48.731Z,17.10
2022-08-22T06:00:48.699Z,17.10
2022-08-22T06:01:49.024Z,17.11
2022-08-22T06:02:48.680Z,17.14
2022-08-22T06:03:48.693Z,17.15
2022-08-22T06:04:48.664Z,17.18
2022-08-22T06:05:48.642Z,17.22
2022-08-22T06:06:48.644Z,17.20
2022-08-22T06:07:48.835Z,17.23
2022-08-22T06:15:12.328Z,17.43
2022-08-22T06:16:07.784Z,17.47
2022-08-22T06:17:07.788Z,17.50
2022-08-22T06:18:07.765Z,17.51
2022-08-22T06:19:19.254Z,17.55
2022-08-22T06:20:08.789Z,17.62
2022-08-22T06:21:07.728Z,17.64
2022-08-22T06:22:07.716Z,17.66
2022-08-22T06:23:07.708Z,17.70
2022-08-22T06:24:07.688Z,17.71
2022-08-22T06:25:07.700Z,17.74
2022-08-22T06:26:20.690Z,17.76
2022-08-22T06:27:08.681Z,17.78
2022-08-22T06:28:07.669Z,17.81
2022-08-22T06:29:07.640Z,17.85
2022-08-22T06:30:07.621Z,17.87
2022-08-22T06:31:08.542Z,17.91
2022-08-22T06:32:07.612Z,17.94
2022-08-22T06:33:07.615Z,17.99
2022-08-22T06:34:08.251Z,18.03
2022-08-22T06:35:07.870Z,18.06
2022-08-22T06:36:07.562Z,18.09
2022-08-22T06:37:07.577Z,18.13
2022-08-22T06:38:07.532Z,18.19
2022-08-22T06:39:07.722Z,18.21
2022-08-22T06:40:07.575Z,18.24
2022-08-22T06:41:07.516Z,18.27
2022-08-22T06:42:07.582Z,18.33
2022-08-22T06:43:07.514Z,18.36
2022-08-22T06:44:07.475Z,18.39
2022-08-22T06:45:07.475Z,18.43
2022-08-22T06:46:07.445Z,18.46
2022-08-22T06:47:07.426Z,18.46
2022-08-22T06:48:07.725Z,18.52
2022-08-22T06:49:07.425Z,18.55
2022-08-22T06:50:07.399Z,18.59
2022-08-22T06:51:08.392Z,18.64
2022-08-22T06:52:07.364Z,18.68
2022-08-22T06:53:07.371Z,18.70
2022-08-22T06:54:07.607Z,18.73
2022-08-22T06:55:07.337Z,18.76
2022-08-22T06:56:07.317Z,18.79
2022-08-22T06:57:07.321Z,18.82
2022-08-22T06:58:07.316Z,18.83
2022-08-22T06:59:07.498Z,18.87
2022-08-22T07:00:07.283Z,18.90
2022-08-22T07:01:11.973Z,18.95
2022-08-22T07:02:08.310Z,18.98
2022-08-22T07:03:07.242Z,19.01
2022-08-22T07:04:07.553Z,19.08
2022-08-22T07:05:07.223Z,19.11
2022-08-22T07:06:07.201Z,19.15
2022-08-22T07:07:07.213Z,19.20
2022-08-22T07:08:07.202Z,19.21
2022-08-22T07:09:07.302Z,19.25
2022-08-22T07:10:07.172Z,19.29
2022-08-22T07:11:07.165Z,19.32
2022-08-22T07:12:07.462Z,19.36
2022-08-22T07:14:01.988Z,19.42
2022-08-22T07:15:01.732Z,19.43
2022-08-22T07:16:01.994Z,19.48
2022-08-22T07:17:01.675Z,19.53
2022-08-22T07:18:01.689Z,19.60
2022-08-22T07:19:01.680Z,19.66
2022-08-22T07:20:01.659Z,19.69
2022-08-22T07:21:01.641Z,19.75
2022-08-22T07:22:01.940Z,19.80
2022-08-22T07:23:01.608Z,19.83
2022-08-22T07:24:01.616Z,19.88
2022-08-22T07:25:01.588Z,19.94
2022-08-22T07:26:01.578Z,20.00
2022-08-22T07:27:01.572Z,20.05
2022-08-22T07:28:03.733Z,20.09
2022-08-22T07:29:01.565Z,20.13
2022-08-22T07:30:01.538Z,20.18
2022-08-22T07:31:01.533Z,20.23
2022-08-22T07:32:01.545Z,20.28
2022-08-22T07:33:21.043Z,20.30
2022-08-22T07:34:02.513Z,20.34
2022-08-22T07:35:01.471Z,20.38
2022-08-22T07:36:01.473Z,20.41
2022-08-22T07:37:01.463Z,20.43
2022-08-22T07:38:01.767Z,20.47
2022-08-22T07:39:01.432Z,20.50
2022-08-22T07:40:01.461Z,20.53
2022-08-22T07:41:01.407Z,20.56
2022-08-22T07:42:01.418Z,20.58
2022-08-22T07:43:01.598Z,20.62
2022-08-22T07:44:01.378Z,20.62
2022-08-22T07:45:01.368Z,20.66
2022-08-22T07:46:01.345Z,20.69
2022-08-22T07:47:01.351Z,20.74
2022-08-22T07:48:01.723Z,20.77
2022-08-22T07:49:09.819Z,20.81
2022-08-22T07:50:02.297Z,20.84
2022-08-22T07:51:01.288Z,20.89
2022-08-22T07:52:01.278Z,20.93
2022-08-22T07:53:01.268Z,20.98
2022-08-22T07:54:01.269Z,21.01
2022-08-22T07:55:01.242Z,21.04
2022-08-22T07:56:01.250Z,21.04
2022-08-22T07:57:01.219Z,21.08
2022-08-22T07:58:01.520Z,21.09
2022-08-22T07:59:01.203Z,21.13
2022-08-22T08:00:01.211Z,21.16
2022-08-22T08:01:01.238Z,21.19
2022-08-22T08:02:01.267Z,21.21
2022-08-22T08:03:01.181Z,21.27
2022-08-22T08:04:01.171Z,21.30
2022-08-22T08:05:01.136Z,21.35
2022-08-22T08:06:01.415Z,21.41
2022-08-22T08:07:01.118Z,21.44
2022-08-22T08:08:01.103Z,21.46
2022-08-22T08:09:01.357Z,21.50
2022-08-22T08:10:01.063Z,21.51
2022-08-22T08:11:01.083Z,21.54
2022-08-22T08:12:01.341Z,21.60
2022-08-22T08:13:02.386Z,21.63
2022-08-22T08:14:01.053Z,21.67
2022-08-22T08:15:01.019Z,21.69
2022-08-22T08:16:00.998Z,21.75
2022-08-22T08:17:00.986Z,21.78
2022-08-22T08:18:01.106Z,21.82
2022-08-22T08:19:00.982Z,21.88
2022-08-22T08:20:01.181Z,21.94
2022-08-22T08:21:00.952Z,21.98
2022-08-22T08:22:00.938Z,22.02
2022-08-22T08:23:00.951Z,22.06
2022-08-22T08:24:01.151Z,22.12
2022-08-22T08:25:01.210Z,22.17
2022-08-22T08:26:01.122Z,22.20
2022-08-22T08:27:00.885Z,22.27
2022-08-22T08:28:01.004Z,22.29
2022-08-22T08:29:00.853Z,22.37
2022-08-22T08:30:00.853Z,22.41
2022-08-22T08:31:00.834Z,22.46
2022-08-22T08:32:00.846Z,22.50
2022-08-22T08:33:25.738Z,22.54
2022-08-22T08:34:01.804Z,22.60
2022-08-22T08:35:00.773Z,22.62
2022-08-22T08:36:01.982Z,22.67
2022-08-22T08:37:00.776Z,22.68
2022-08-22T08:38:00.905Z,22.72
2022-08-22T08:39:00.736Z,22.77
2022-08-22T08:40:00.757Z,22.82
2022-08-22T08:41:00.706Z,22.83
2022-08-22T08:42:00.704Z,22.86
2022-08-22T08:43:00.710Z,22.90
2022-08-22T08:44:00.680Z,22.90
2022-08-22T08:45:00.664Z,22.92
2022-08-22T08:46:01.612Z,22.94
2022-08-22T08:47:00.651Z,22.96
2022-08-22T08:48:00.747Z,22.97
2022-08-22T08:49:00.828Z,23.01
2022-08-22T08:50:00.622Z,23.04
2022-08-22T08:51:02.081Z,23.04
2022-08-22T08:52:00.629Z,23.07
2022-08-22T08:53:00.569Z,23.08
2022-08-22T08:54:00.636Z,23.09
2022-08-22T08:55:00.769Z,23.07
2022-08-22T08:56:00.541Z,23.05
2022-08-22T08:57:00.531Z,23.08
2022-08-22T08:58:06.563Z,23.07
2022-08-22T08:59:01.511Z,23.08
2022-08-22T09:00:00.523Z,23.11
2022-08-22T09:01:01.994Z,23.15
2022-08-22T09:02:00.496Z,23.22
2022-08-22T09:03:00.497Z,23.31
2022-08-22T09:04:01.467Z,23.35
2022-08-22T09:05:00.434Z,23.42
2022-08-22T09:06:00.438Z,23.47
2022-08-22T09:08:01.579Z,23.61
2022-08-22T09:09:00.429Z,23.64
2022-08-22T09:10:00.397Z,23.68
2022-08-22T09:11:00.365Z,23.75
2022-08-22T09:12:00.370Z,23.79
2022-08-22T09:13:11.854Z,23.82
2022-08-22T09:14:01.352Z,23.85
2022-08-22T09:15:00.339Z,23.90
2022-08-22T09:16:05.047Z,23.94
2022-08-22T09:17:01.299Z,23.92
2022-08-22T09:18:00.646Z,23.95
2022-08-22T09:19:00.563Z,24.00
2022-08-22T09:20:00.269Z,23.98
2022-08-22T09:21:00.260Z,24.05
2022-08-22T09:22:00.264Z,24.10
2022-08-22T09:23:00.230Z,24.19
2022-08-22T09:24:00.221Z,24.20
2022-08-22T09:25:00.463Z,24.23
2022-08-22T09:26:00.210Z,24.27
2022-08-22T09:27:00.221Z,24.32
2022-08-22T09:28:00.444Z,24.37
2022-08-22T09:29:00.184Z,24.42
2022-08-22T09:30:00.192Z,24.45
2022-08-22T09:31:00.155Z,24.49
2022-08-22T09:32:00.349Z,24.53
2022-08-22T09:33:00.129Z,24.53
2022-08-22T09:34:00.128Z,24.56
2022-08-22T09:35:01.135Z,24.59
2022-08-22T09:36:00.103Z,24.64
2022-08-22T09:37:00.066Z,24.69
2022-08-22T09:38:00.355Z,24.75
2022-08-22T09:39:00.062Z,24.77
2022-08-22T09:40:00.136Z,24.80
2022-08-22T09:41:00.248Z,24.79
2022-08-22T09:42:00.024Z,24.75
2022-08-22T09:43:00.262Z,24.76
2022-08-22T09:43:59.992Z,24.83
2022-08-22T09:45:00.250Z,24.87
2022-08-22T09:46:02.123Z,24.91
2022-08-22T09:46:59.950Z,24.97
2022-08-22T09:48:07.000Z,25.01
2022-08-22T09:49:00.931Z,25.05
2022-08-22T09:50:00.161Z,25.12
2022-08-22T09:51:08.450Z,25.17
2022-08-22T09:52:04.808Z,25.19
2022-08-22T09:53:01.039Z,25.24
2022-08-22T09:53:59.874Z,25.25
2022-08-22T09:54:59.864Z,25.24
2022-08-22T09:56:00.071Z,25.24
2022-08-22T09:57:00.850Z,25.28
2022-08-22T09:57:59.845Z,25.32
2022-08-22T09:58:59.823Z,25.35
2022-08-22T09:59:59.847Z,25.39
2022-08-22T10:00:59.887Z,25.46
2022-08-22T10:01:59.801Z,25.52
2022-08-22T10:02:59.904Z,25.57
2022-08-22T10:03:59.777Z,25.62
2022-08-22T10:04:59.745Z,25.71
2022-08-22T10:06:00.057Z,25.77
2022-08-22T10:06:59.740Z,25.82
2022-08-22T10:07:59.731Z,25.83
2022-08-22T10:08:59.709Z,25.86
2022-08-22T10:09:59.697Z,25.90
2022-08-22T10:10:59.679Z,25.93
2022-08-22T10:12:00.011Z,25.94
2022-08-22T10:12:59.756Z,25.98
2022-08-22T10:14:01.421Z,26.02
2022-08-22T10:14:59.632Z,26.05
2022-08-22T10:15:59.635Z,26.08
2022-08-22T10:16:59.942Z,26.08
2022-08-22T10:17:59.618Z,26.15
2022-08-22T10:19:00.787Z,26.20
2022-08-22T10:19:59.597Z,26.21
2022-08-22T10:20:59.577Z,26.15
2022-08-22T10:21:59.826Z,26.11
2022-08-22T10:22:59.836Z,26.17
2022-08-22T10:23:59.536Z,26.18
2022-08-22T10:24:59.526Z,26.17
2022-08-22T10:25:59.529Z,26.22
2022-08-22T10:26:59.497Z,26.25
2022-08-22T10:27:59.710Z,26.31
2022-08-22T10:28:59.689Z,26.35
2022-08-22T10:29:59.482Z,26.36
2022-08-22T10:30:59.472Z,26.37
2022-08-22T10:31:59.877Z,26.40
2022-08-22T10:32:59.509Z,26.47
2022-08-22T10:33:59.422Z,26.50
2022-08-22T10:34:59.729Z,26.55
2022-08-22T10:35:59.410Z,26.58
2022-08-22T10:36:59.403Z,26.61
2022-08-22T10:37:59.381Z,26.61
2022-08-22T10:38:59.386Z,26.58
2022-08-22T10:39:59.632Z,26.59
2022-08-22T10:40:59.343Z,26.59
2022-08-22T10:41:59.334Z,26.58
2022-08-22T10:42:59.651Z,26.46
2022-08-22T10:44:01.344Z,26.40
2022-08-22T10:44:59.304Z,26.42
2022-08-22T10:45:59.547Z,26.50
2022-08-22T10:46:59.298Z,26.57
2022-08-22T10:47:59.279Z,26.65
2022-08-22T10:48:59.509Z,26.68
2022-08-22T10:50:00.259Z,26.67
2022-08-22T10:50:59.242Z,26.73
2022-08-22T10:52:00.046Z,26.76
2022-08-22T10:53:00.496Z,26.83
2022-08-22T10:53:59.226Z,26.80
2022-08-22T10:54:59.222Z,26.79
2022-08-22T10:55:59.195Z,26.81
2022-08-22T10:56:59.345Z,26.83
2022-08-22T10:57:59.158Z,26.86
2022-08-22T10:58:59.190Z,26.92
2022-08-22T10:59:59.154Z,26.99
2022-08-22T11:00:59.417Z,27.05
2022-08-22T11:01:59.140Z,27.01
2022-08-22T11:02:59.353Z,26.98
2022-08-22T11:03:59.083Z,27.01
2022-08-22T11:04:59.090Z,27.04
2022-08-22T11:05:59.394Z,27.06
2022-08-22T11:06:59.054Z,27.13
2022-08-22T11:07:59.061Z,27.16
2022-08-22T11:08:59.050Z,27.19
2022-08-22T11:09:59.017Z,27.17
2022-08-22T11:10:59.336Z,27.10
2022-08-22T11:11:59.029Z,27.06
2022-08-22T11:12:59.148Z,27.06
2022-08-22T11:13:59.385Z,27.11
2022-08-22T11:14:58.958Z,27.13
2022-08-22T11:15:58.961Z,27.05
2022-08-22T11:16:59.248Z,27.10
2022-08-22T11:17:58.928Z,27.17
2022-08-22T11:19:02.834Z,27.23
2022-08-22T11:19:59.110Z,27.31
2022-08-22T11:20:58.910Z,27.36
2022-08-22T11:21:58.895Z,27.43
2022-08-22T11:22:59.078Z,27.53
2022-08-22T11:24:00.543Z,27.61
2022-08-22T11:25:04.009Z,27.71
2022-08-22T11:25:59.858Z,27.76
2022-08-22T11:26:59.836Z,27.76
2022-08-22T11:27:59.109Z,27.76
2022-08-22T11:29:13.333Z,27.71
2022-08-22T11:29:59.797Z,27.66
2022-08-22T11:30:58.788Z,27.67
2022-08-22T11:32:00.437Z,27.66
2022-08-22T11:33:00.436Z,27.62
2022-08-22T11:33:58.756Z,27.58
2022-08-22T11:34:58.727Z,27.62
2022-08-22T11:35:58.716Z,27.62
2022-08-22T11:36:59.719Z,27.64
2022-08-22T11:37:58.696Z,27.70
2022-08-22T11:38:58.722Z,27.77
2022-08-22T11:39:58.704Z,27.85
2022-08-22T11:40:58.680Z,27.94
2022-08-22T11:41:58.650Z,28.01
2022-08-22T11:42:59.058Z,28.09
2022-08-22T11:43:58.628Z,28.14
2022-08-22T11:44:58.624Z,28.13
2022-08-22T11:45:58.602Z,28.10
2022-08-22T11:46:58.816Z,28.03
2022-08-22T11:47:58.595Z,28.06
2022-08-22T11:48:58.572Z,28.09
2022-08-22T11:49:58.595Z,28.14
2022-08-22T11:50:58.553Z,28.22
2022-08-22T11:51:58.555Z,28.22
2022-08-22T11:52:58.748Z,28.23
2022-08-22T11:53:58.526Z,28.28
2022-08-22T11:54:58.518Z,28.40
2022-08-22T11:55:58.488Z,28.40
2022-08-22T11:56:58.495Z,28.32
2022-08-22T11:57:58.475Z,28.28
2022-08-22T11:58:58.486Z,28.26
2022-08-22T11:59:58.464Z,28.32
2022-08-22T12:00:58.652Z,28.29
2022-08-22T12:01:58.447Z,28.36
2022-08-22T12:02:58.607Z,28.43
2022-08-22T12:03:58.865Z,28.44
2022-08-22T12:04:58.409Z,28.47
2022-08-22T12:05:58.607Z,28.53
2022-08-22T12:06:58.371Z,28.63
2022-08-22T12:07:58.371Z,28.75
2022-08-22T12:08:58.402Z,28.77
2022-08-22T12:09:58.354Z,28.78
2022-08-22T12:10:58.347Z,28.80
2022-08-22T12:11:58.395Z,28.78
2022-08-22T12:12:58.465Z,28.77
2022-08-22T12:14:04.678Z,28.73
2022-08-22T12:14:59.618Z,28.72
2022-08-22T12:15:58.274Z,28.69
2022-08-22T12:16:58.344Z,28.70
2022-08-22T12:18:01.456Z,28.69
2022-08-22T12:18:58.260Z,28.69
2022-08-22T12:20:16.131Z,28.73
2022-08-22T12:20:59.527Z,28.70
2022-08-22T12:21:58.206Z,28.72
2022-08-22T12:22:58.211Z,28.62
2022-08-22T12:23:58.178Z,28.46
2022-08-22T12:25:02.586Z,28.40
2022-08-22T12:25:58.169Z,28.33
2022-08-22T12:26:58.473Z,28.25
2022-08-22T12:27:58.144Z,28.17
2022-08-22T12:28:58.130Z,28.14
2022-08-22T12:29:58.122Z,28.10
2022-08-22T12:30:58.111Z,28.14
2022-08-22T12:31:58.114Z,28.16
2022-08-22T12:32:58.401Z,28.21
2022-08-22T12:33:58.085Z,28.22
2022-08-22T12:34:58.067Z,28.25
2022-08-22T12:35:58.053Z,28.28
2022-08-22T12:36:58.047Z,28.28
2022-08-22T12:37:58.307Z,28.31
2022-08-22T12:38:58.026Z,28.32
2022-08-22T12:39:58.075Z,28.36
2022-08-22T12:40:58.009Z,28.36
2022-08-22T12:41:58.005Z,28.40
2022-08-22T12:42:57.991Z,28.41
2022-08-22T12:43:57.980Z,28.41
2022-08-22T12:44:57.955Z,28.43
2022-08-22T12:45:57.954Z,28.41
2022-08-22T12:46:57.954Z,28.40
2022-08-22T12:47:58.335Z,28.38
2022-08-22T12:48:57.959Z,28.38
2022-08-22T12:49:57.923Z,28.32
2022-08-22T12:50:57.910Z,28.31
2022-08-22T12:52:00.900Z,28.32
2022-08-22T12:52:59.140Z,28.32
2022-08-22T12:53:57.866Z,28.31